createdAt,value
2022-12-15T00:00:41.767Z,0.00
2022-12-15T00:01:41.765Z,0.00
2022-12-15T00:02:41.892Z,0.00
2022-12-15T00:03:42.908Z,0.00
2022-12-15T00:04:41.891Z,0.00
2022-12-15T00:05:41.950Z,0.00
2022-12-15T00:06:41.996Z,0.00
2022-12-15T00:07:42.015Z,0.00
2022-12-15T00:08:42.096Z,0.00
2022-12-15T00:09:42.105Z,0.00
2022-12-15T00:10:42.788Z,0.00
2022-12-15T00:11:42.188Z,0.00
2022-12-15T00:12:42.231Z,0.00
2022-12-15T00:13:42.291Z,0.00
2022-12-15T00:14:54.830Z,0.00
2022-12-15T00:15:42.380Z,0.00
2022-12-15T00:16:42.390Z,0.00
2022-12-15T00:17:42.429Z,0.00
2022-12-15T00:18:42.490Z,0.00
2022-12-15T00:19:42.509Z,0.00
2022-12-15T00:20:43.332Z,0.00
2022-12-15T00:21:42.590Z,0.00
2022-12-15T00:22:42.664Z,0.00
2022-12-15T00:23:42.679Z,0.00
2022-12-15T00:24:42.746Z,0.00
2022-12-15T00:25:43.326Z,0.00
2022-12-15T00:26:42.803Z,0.00
2022-12-15T00:27:42.838Z,0.00
2022-12-15T00:28:43.817Z,0.00
2022-12-15T00:29:42.947Z,0.00
2022-12-15T00:30:42.965Z,0.00
2022-12-15T00:31:43.098Z,0.00
2022-12-15T00:32:43.823Z,0.00
2022-12-15T00:33:43.088Z,0.00
2022-12-15T00:34:43.158Z,0.00
2022-12-15T00:35:43.829Z,0.00
2022-12-15T00:36:43.247Z,0.00
2022-12-15T00:37:43.258Z,0.00
2022-12-15T00:38:43.295Z,0.00
2022-12-15T00:39:43.342Z,0.00
2022-12-15T00:40:43.407Z,0.00
2022-12-15T00:41:44.328Z,0.00
2022-12-15T00:42:43.464Z,0.00
2022-12-15T00:43:43.504Z,0.00
2022-12-15T00:44:43.546Z,0.00
2022-12-15T00:45:43.614Z,0.00
2022-12-15T00:46:43.686Z,0.00
2022-12-15T00:47:44.319Z,0.00
2022-12-15T00:48:43.713Z,0.00
2022-12-15T00:49:43.758Z,0.00
2022-12-15T00:50:43.813Z,0.00
2022-12-15T00:51:43.829Z,0.00
2022-12-15T00:52:43.899Z,0.00
2022-12-15T00:53:43.920Z,0.00
2022-12-15T00:54:43.950Z,0.00
2022-12-15T00:55:44.820Z,0.00
2022-12-15T00:56:44.041Z,0.00
2022-12-15T00:57:44.106Z,0.00
2022-12-15T00:58:44.116Z,0.00
2022-12-15T00:59:44.164Z,0.00
2022-12-15T01:00:44.209Z,0.00
2022-12-15T01:01:44.344Z,0.00
2022-12-15T01:02:44.444Z,0.00
2022-12-15T01:03:44.494Z,0.00
2022-12-15T01:04:44.373Z,0.00
2022-12-15T01:05:45.320Z,0.00
2022-12-15T01:06:44.447Z,0.00
2022-12-15T01:07:44.488Z,0.00
2022-12-15T01:08:44.550Z,0.00
2022-12-15T01:09:44.577Z,0.00
2022-12-15T01:10:45.322Z,0.00
2022-12-15T01:11:44.656Z,0.00
2022-12-15T01:12:44.726Z,0.00
2022-12-15T01:13:44.773Z,0.00
2022-12-15T01:14:44.777Z,0.00
2022-12-15T01:15:44.874Z,0.00
2022-12-15T01:16:45.834Z,0.00
2022-12-15T01:17:44.911Z,0.00
2022-12-15T01:18:44.968Z,0.00
2022-12-15T01:19:44.995Z,0.00
2022-12-15T01:20:45.035Z,0.00
2022-12-15T01:21:45.078Z,0.00
2022-12-15T01:22:45.140Z,0.00
2022-12-15T01:23:45.152Z,0.00
2022-12-15T01:24:45.232Z,0.00
2022-12-15T01:25:45.275Z,0.00
2022-12-15T01:26:45.275Z,0.00
2022-12-15T01:27:45.318Z,0.00
2022-12-15T01:28:45.370Z,0.00
2022-12-15T01:29:45.399Z,0.00
2022-12-15T01:30:45.480Z,0.00
2022-12-15T01:31:45.536Z,0.00
2022-12-15T01:32:46.343Z,0.00
2022-12-15T01:33:46.332Z,0.00
2022-12-15T01:34:45.609Z,0.00
2022-12-15T01:35:45.676Z,0.00
2022-12-15T01:36:45.706Z,0.00
2022-12-15T01:37:45.734Z,0.00
2022-12-15T01:38:50.708Z,0.00
2022-12-15T01:39:45.817Z,0.00
2022-12-15T01:40:45.891Z,0.00
2022-12-15T01:41:45.929Z,0.00
2022-12-15T01:42:45.946Z,0.00
2022-12-15T01:43:45.983Z,0.00
2022-12-15T01:44:46.022Z,0.00
2022-12-15T01:45:46.828Z,0.00
2022-12-15T01:46:46.220Z,0.00
2022-12-15T01:47:46.159Z,0.00
2022-12-15T01:48:46.201Z,0.00
2022-12-15T01:49:46.236Z,0.00
2022-12-15T01:50:46.274Z,0.00
2022-12-15T01:51:46.341Z,0.00
2022-12-15T01:52:46.411Z,0.00
2022-12-15T01:53:46.403Z,0.00
2022-12-15T01:54:48.536Z,0.00
2022-12-15T01:55:48.054Z,0.00
2022-12-15T01:56:46.529Z,0.00
2022-12-15T01:57:46.589Z,0.00
2022-12-15T01:58:46.611Z,0.00
2022-12-15T01:59:46.650Z,0.00
2022-12-15T02:00:46.739Z,0.00
2022-12-15T02:01:50.293Z,0.00
2022-12-15T02:02:47.447Z,0.00
2022-12-15T02:03:46.818Z,0.00
2022-12-15T02:04:46.853Z,0.00
2022-12-15T02:05:46.892Z,0.00
2022-12-15T02:06:46.974Z,0.00
2022-12-15T02:07:46.984Z,0.00
2022-12-15T02:08:47.841Z,0.00
2022-12-15T02:09:47.063Z,0.00
2022-12-15T02:10:47.106Z,0.00
2022-12-15T02:11:47.172Z,0.00
2022-12-15T02:12:47.206Z,0.00
2022-12-15T02:13:47.228Z,0.00
2022-12-15T02:14:47.832Z,0.00
2022-12-15T02:15:47.298Z,0.00
2022-12-15T02:16:47.433Z,0.00
2022-12-15T02:17:47.393Z,0.00
2022-12-15T02:18:47.432Z,0.00
2022-12-15T02:19:48.337Z,0.00
2022-12-15T02:20:47.542Z,0.00
2022-12-15T02:21:47.548Z,0.00
2022-12-15T02:22:47.602Z,0.00
2022-12-15T02:23:47.637Z,0.00
2022-12-15T02:24:49.606Z,0.00
2022-12-15T02:25:50.708Z,0.00
2022-12-15T02:26:47.757Z,0.00
2022-12-15T02:27:47.794Z,0.00
2022-12-15T02:28:47.843Z,0.00
2022-12-15T02:29:47.962Z,0.00
2022-12-15T02:30:47.921Z,0.00
2022-12-15T02:31:50.040Z,0.00
2022-12-15T02:32:48.828Z,0.00
2022-12-15T02:33:48.048Z,0.00
2022-12-15T02:34:48.114Z,0.00
2022-12-15T02:35:48.146Z,0.00
2022-12-15T02:36:48.163Z,0.00
2022-12-15T02:37:50.133Z,0.00
2022-12-15T02:38:48.246Z,0.00
2022-12-15T02:39:48.287Z,0.00
2022-12-15T02:40:48.364Z,0.00
2022-12-15T02:41:48.378Z,0.00
2022-12-15T02:42:48.433Z,0.00
2022-12-15T02:43:49.928Z,0.00
2022-12-15T02:44:48.489Z,0.00
2022-12-15T02:45:48.578Z,0.00
2022-12-15T02:46:48.575Z,0.00
2022-12-15T02:47:48.645Z,0.00
2022-12-15T02:48:48.652Z,0.00
2022-12-15T02:49:49.738Z,0.00
2022-12-15T02:50:49.336Z,0.00
2022-12-15T02:51:48.788Z,0.00
2022-12-15T02:52:48.825Z,0.00
2022-12-15T02:53:48.875Z,0.00
2022-12-15T02:54:48.923Z,0.00
2022-12-15T02:55:50.373Z,0.00
2022-12-15T02:56:48.985Z,0.00
2022-12-15T02:57:49.047Z,0.00
2022-12-15T02:58:49.065Z,0.00
2022-12-15T02:59:49.134Z,0.00
2022-12-15T03:00:49.194Z,0.00
2022-12-15T03:01:49.813Z,0.00
2022-12-15T03:02:49.352Z,0.00
2022-12-15T03:03:49.279Z,0.00
2022-12-15T03:04:49.341Z,0.00
2022-12-15T03:05:49.387Z,0.00
2022-12-15T03:06:50.330Z,0.00
2022-12-15T03:07:49.598Z,0.00
2022-12-15T03:08:49.488Z,0.00
2022-12-15T03:09:49.517Z,0.00
2022-12-15T03:10:49.585Z,0.00
2022-12-15T03:11:49.602Z,0.00
2022-12-15T03:12:50.336Z,0.00
2022-12-15T03:13:49.925Z,0.00
2022-12-15T03:14:49.757Z,0.00
2022-12-15T03:15:50.341Z,0.00
2022-12-15T03:16:49.907Z,0.00
2022-12-15T03:17:49.870Z,0.00
2022-12-15T03:18:50.840Z,0.00
2022-12-15T03:19:50.051Z,0.00
2022-12-15T03:20:49.971Z,0.00
2022-12-15T03:21:50.023Z,0.00
2022-12-15T03:22:50.092Z,0.00
2022-12-15T03:23:50.102Z,0.00
2022-12-15T03:24:50.150Z,0.00
2022-12-15T03:25:50.184Z,0.00
2022-12-15T03:26:50.318Z,0.00
2022-12-15T03:27:50.307Z,0.00
2022-12-15T03:28:50.369Z,0.00
2022-12-15T03:29:50.344Z,0.00
2022-12-15T03:30:50.812Z,0.00
2022-12-15T03:31:50.532Z,0.00
2022-12-15T03:32:50.478Z,0.00
2022-12-15T03:33:50.546Z,0.00
2022-12-15T03:34:50.583Z,0.00
2022-12-15T03:35:50.623Z,0.00
2022-12-15T03:36:50.643Z,0.00
2022-12-15T03:37:50.692Z,0.00
2022-12-15T03:38:50.715Z,0.00
2022-12-15T03:39:50.758Z,0.00
2022-12-15T03:40:50.800Z,0.00
2022-12-15T03:41:50.880Z,0.00
2022-12-15T03:42:50.918Z,0.00
2022-12-15T03:43:50.924Z,0.00
2022-12-15T03:44:50.992Z,0.00
2022-12-15T03:45:51.052Z,0.00
2022-12-15T03:46:51.074Z,0.00
2022-12-15T03:47:51.836Z,0.00
2022-12-15T03:48:51.159Z,0.00
2022-12-15T03:49:51.840Z,0.00
2022-12-15T03:50:51.212Z,0.00
2022-12-15T03:51:51.249Z,0.00
2022-12-15T03:52:51.300Z,0.00
2022-12-15T03:53:51.363Z,0.00
2022-12-15T03:54:51.374Z,0.00
2022-12-15T03:55:51.417Z,0.00
2022-12-15T03:56:51.470Z,0.00
2022-12-15T03:57:51.521Z,0.00
2022-12-15T03:58:51.554Z,0.00
2022-12-15T03:59:52.340Z,0.00
2022-12-15T04:00:51.626Z,0.00
2022-12-15T04:01:51.784Z,0.00
2022-12-15T04:02:51.953Z,0.00
2022-12-15T04:03:54.307Z,0.00
2022-12-15T04:04:51.789Z,0.00
2022-12-15T04:05:52.335Z,0.00
2022-12-15T04:06:51.904Z,0.00
2022-12-15T04:07:51.924Z,0.00
2022-12-15T04:08:51.960Z,0.00
2022-12-15T04:09:52.024Z,0.00
2022-12-15T04:10:52.836Z,0.00
2022-12-15T04:11:52.087Z,0.00
2022-12-15T04:12:52.131Z,0.00
2022-12-15T04:13:52.187Z,0.00
2022-12-15T04:14:52.232Z,0.00
2022-12-15T04:15:52.283Z,0.00
2022-12-15T04:16:52.890Z,0.00
2022-12-15T04:17:52.328Z,0.00
2022-12-15T04:18:52.379Z,0.00
2022-12-15T04:19:52.418Z,0.00
2022-12-15T04:20:52.536Z,0.00
2022-12-15T04:21:52.513Z,0.00
2022-12-15T04:22:52.547Z,0.00
2022-12-15T04:23:52.582Z,0.00
2022-12-15T04:24:52.618Z,0.00
2022-12-15T04:25:52.688Z,0.00
2022-12-15T04:26:52.698Z,0.00
2022-12-15T04:27:54.807Z,0.00
2022-12-15T04:28:53.343Z,0.00
2022-12-15T04:29:52.828Z,0.00
2022-12-15T04:30:52.934Z,0.00
2022-12-15T04:31:52.911Z,0.00
2022-12-15T04:32:52.944Z,0.00
2022-12-15T04:33:52.994Z,0.00
2022-12-15T04:34:53.841Z,0.00
2022-12-15T04:35:53.110Z,0.00
2022-12-15T04:36:53.119Z,0.00
2022-12-15T04:37:53.187Z,0.00
2022-12-15T04:38:53.200Z,0.00
2022-12-15T04:39:53.259Z,0.00
2022-12-15T04:40:53.837Z,0.00
2022-12-15T04:41:53.837Z,0.00
2022-12-15T04:42:53.357Z,0.00
2022-12-15T04:43:53.433Z,0.00
2022-12-15T04:44:53.444Z,0.00
2022-12-15T04:45:53.528Z,0.00
2022-12-15T04:46:53.519Z,0.00
2022-12-15T04:47:53.560Z,0.00
2022-12-15T04:48:53.631Z,0.00
2022-12-15T04:49:53.641Z,0.00
2022-12-15T04:50:53.686Z,0.00
2022-12-15T04:51:53.731Z,0.00
2022-12-15T04:52:53.776Z,0.00
2022-12-15T04:53:55.529Z,0.00
2022-12-15T04:54:53.874Z,0.00
2022-12-15T04:55:53.894Z,0.00
2022-12-15T04:56:53.925Z,0.00
2022-12-15T04:57:54.843Z,0.00
2022-12-15T04:58:54.021Z,0.00
2022-12-15T05:00:07.098Z,0.00
2022-12-15T05:00:54.094Z,0.00
2022-12-15T05:01:54.253Z,0.00
2022-12-15T05:02:54.206Z,0.00
2022-12-15T05:03:54.283Z,0.00
2022-12-15T05:04:54.257Z,0.00
2022-12-15T05:05:54.304Z,0.00
2022-12-15T05:06:54.352Z,0.00
2022-12-15T05:07:54.387Z,0.00
2022-12-15T05:08:54.466Z,0.00
2022-12-15T05:09:58.421Z,0.00
2022-12-15T05:10:54.508Z,0.00
2022-12-15T05:11:54.547Z,0.00
2022-12-15T05:12:54.598Z,0.00
2022-12-15T05:13:54.651Z,0.00
2022-12-15T05:14:54.696Z,0.00
2022-12-15T05:15:54.802Z,0.00
2022-12-15T05:16:54.823Z,0.00
2022-12-15T05:17:54.791Z,0.00
2022-12-15T05:18:54.840Z,0.00
2022-12-15T05:19:54.887Z,0.00
2022-12-15T05:20:54.951Z,0.00
2022-12-15T05:21:54.958Z,0.00
2022-12-15T05:22:55.002Z,0.00
2022-12-15T05:23:55.037Z,0.00
2022-12-15T05:24:55.085Z,0.00
2022-12-15T05:25:55.156Z,0.00
2022-12-15T05:26:55.169Z,0.00
2022-12-15T05:27:55.222Z,0.00
2022-12-15T05:28:55.242Z,0.00
2022-12-15T05:29:55.287Z,0.00
2022-12-15T05:30:55.369Z,0.00
2022-12-15T05:31:55.377Z,0.00
2022-12-15T05:32:55.437Z,0.00
2022-12-15T05:33:58.290Z,0.00
2022-12-15T05:34:55.529Z,0.00
2022-12-15T05:35:56.378Z,0.00
2022-12-15T05:36:55.584Z,0.00
2022-12-15T05:37:55.627Z,0.00
2022-12-15T05:38:56.379Z,0.00
2022-12-15T05:39:55.732Z,0.00
2022-12-15T05:40:55.733Z,0.00
2022-12-15T05:41:55.783Z,0.00
2022-12-15T05:42:55.876Z,0.00
2022-12-15T05:43:55.857Z,0.00
2022-12-15T05:44:56.885Z,0.00
2022-12-15T05:45:56.922Z,0.00
2022-12-15T05:46:55.991Z,0.00
2022-12-15T05:47:56.041Z,0.00
2022-12-15T05:48:56.070Z,0.00
2022-12-15T05:49:56.106Z,0.00
2022-12-15T05:50:56.185Z,0.00
2022-12-15T05:51:56.215Z,0.00
2022-12-15T05:52:56.227Z,0.00
2022-12-15T05:53:56.268Z,0.00
2022-12-15T05:54:56.318Z,0.00
2022-12-15T05:55:56.386Z,0.00
2022-12-15T05:56:56.396Z,0.00
2022-12-15T05:57:56.440Z,0.00
2022-12-15T05:58:56.474Z,0.00
2022-12-15T05:59:56.514Z,0.00
2022-12-15T06:00:56.592Z,0.00
2022-12-15T06:01:56.625Z,0.00
2022-12-15T06:02:56.709Z,0.00
2022-12-15T06:03:56.673Z,0.00
2022-12-15T06:04:56.786Z,0.00
2022-12-15T06:05:56.849Z,0.00
2022-12-15T06:06:56.839Z,0.00
2022-12-15T06:07:56.849Z,0.00
2022-12-15T06:08:56.878Z,0.00
2022-12-15T06:09:56.921Z,0.00
2022-12-15T06:10:56.969Z,0.00
2022-12-15T06:11:57.040Z,0.00
2022-12-15T06:12:57.050Z,0.00
2022-12-15T06:13:57.890Z,0.00
2022-12-15T06:14:57.138Z,0.00
2022-12-15T06:15:57.215Z,0.00
2022-12-15T06:16:57.313Z,0.00
2022-12-15T06:17:57.262Z,0.00
2022-12-15T06:18:57.884Z,0.00
2022-12-15T06:19:57.882Z,0.00
2022-12-15T06:20:57.890Z,0.00
2022-12-15T06:21:57.449Z,0.00
2022-12-15T06:22:57.456Z,0.00
2022-12-15T06:23:57.502Z,0.00
2022-12-15T06:24:57.534Z,0.00
2022-12-15T06:25:58.394Z,0.00
2022-12-15T06:26:57.651Z,0.00
2022-12-15T06:28:01.742Z,0.00
2022-12-15T06:28:57.693Z,0.00
2022-12-15T06:29:57.738Z,0.00
2022-12-15T06:30:57.813Z,0.00
2022-12-15T06:31:57.890Z,0.00
2022-12-15T06:32:57.864Z,0.00
2022-12-15T06:34:02.069Z,0.00
2022-12-15T06:34:57.978Z,0.00
2022-12-15T06:35:57.984Z,0.00
2022-12-15T06:36:58.023Z,0.00
2022-12-15T06:37:58.070Z,0.00
2022-12-15T06:38:58.137Z,0.00
2022-12-15T06:39:58.151Z,0.00
2022-12-15T06:40:58.192Z,0.00
2022-12-15T06:41:58.224Z,0.00
2022-12-15T06:42:58.281Z,0.00
2022-12-15T06:43:58.343Z,0.00
2022-12-15T06:44:58.350Z,0.00
2022-12-15T06:45:58.398Z,0.00
2022-12-15T06:46:58.460Z,0.00
2022-12-15T06:48:01.557Z,0.00
2022-12-15T06:48:58.563Z,0.00
2022-12-15T06:49:58.552Z,0.00
2022-12-15T06:50:59.389Z,0.00
2022-12-15T06:51:58.673Z,0.00
2022-12-15T06:52:58.672Z,0.00
2022-12-15T06:53:59.382Z,0.00
2022-12-15T06:54:58.752Z,0.00
2022-12-15T06:55:58.794Z,0.00
2022-12-15T06:56:58.869Z,0.00
2022-12-15T06:57:58.876Z,0.00
2022-12-15T06:58:58.941Z,0.00
2022-12-15T06:59:58.957Z,0.00
2022-12-15T07:00:59.029Z,0.00
2022-12-15T07:01:59.164Z,0.00
2022-12-15T07:02:59.332Z,0.00
2022-12-15T07:03:59.437Z,0.00
2022-12-15T07:04:59.160Z,0.00
2022-12-15T07:05:59.212Z,0.00
2022-12-15T07:06:59.282Z,0.00
2022-12-15T07:07:59.282Z,0.00
2022-12-15T07:08:59.323Z,0.00
2022-12-15T07:09:59.379Z,0.00
2022-12-15T07:11:00.393Z,0.00
2022-12-15T07:11:59.483Z,0.00
2022-12-15T07:12:59.493Z,0.00
2022-12-15T07:13:59.530Z,0.00
2022-12-15T07:14:59.593Z,0.00
2022-12-15T07:15:59.657Z,0.00
2022-12-15T07:16:59.680Z,0.00
2022-12-15T07:17:59.693Z,0.00
2022-12-15T07:18:59.738Z,0.00
2022-12-15T07:19:59.809Z,0.00
2022-12-15T07:21:00.394Z,0.00
2022-12-15T07:21:59.850Z,5.63
2022-12-15T07:23:00.888Z,5.63
2022-12-15T07:27:11.548Z,5.63
2022-12-15T07:28:11.575Z,5.63
2022-12-15T07:29:11.610Z,5.63
2022-12-15T07:30:12.487Z,5.63
2022-12-15T07:31:11.740Z,5.63
2022-12-15T07:32:11.768Z,5.63
2022-12-15T07:33:11.778Z,5.63
2022-12-15T07:34:11.852Z,5.63
2022-12-15T07:35:11.850Z,5.63
2022-12-15T07:36:11.894Z,11.25
2022-12-15T07:37:11.953Z,11.25
2022-12-15T07:38:11.973Z,11.25
2022-12-15T07:39:12.067Z,11.25
2022-12-15T07:40:12.077Z,11.25
2022-12-15T07:41:12.129Z,11.25
2022-12-15T07:43:53.273Z,11.25
2022-12-15T07:44:53.259Z,11.25
2022-12-15T07:45:53.929Z,11.25
2022-12-15T07:46:53.358Z,11.25
2022-12-15T07:47:53.378Z,11.25
2022-12-15T07:48:53.379Z,16.88
2022-12-15T07:49:53.521Z,16.88
2022-12-15T07:50:53.521Z,16.88
2022-12-15T07:51:54.389Z,16.88
2022-12-15T07:52:53.565Z,16.88
2022-12-15T07:53:53.641Z,16.88
2022-12-15T07:54:53.760Z,16.88
2022-12-15T07:56:07.036Z,16.88
2022-12-15T07:56:53.739Z,22.50
2022-12-15T07:57:53.782Z,22.50
2022-12-15T07:58:53.861Z,22.50
2022-12-15T07:59:53.884Z,22.50
2022-12-15T08:00:54.916Z,22.50
2022-12-15T08:01:54.134Z,22.50
2022-12-15T08:02:55.027Z,22.50
2022-12-15T08:03:54.121Z,22.50
2022-12-15T08:04:54.095Z,22.50
2022-12-15T08:05:56.622Z,28.13
2022-12-15T08:06:54.851Z,28.13
2022-12-15T08:07:54.166Z,28.13
2022-12-15T08:08:54.874Z,28.13
2022-12-15T08:09:54.901Z,28.13
2022-12-15T08:10:54.865Z,28.13
2022-12-15T08:11:54.445Z,28.13
2022-12-15T08:12:54.413Z,28.13
2022-12-15T08:14:03.447Z,33.75
2022-12-15T08:14:54.472Z,33.75
2022-12-15T08:15:55.401Z,39.38
2022-12-15T08:16:54.683Z,39.38
2022-12-15T08:17:54.565Z,39.38
2022-12-15T08:18:54.655Z,39.38
2022-12-15T08:19:58.740Z,39.38
2022-12-15T08:20:54.709Z,45.00
2022-12-15T08:21:54.753Z,45.00
2022-12-15T08:22:54.775Z,39.38
2022-12-15T08:23:54.865Z,33.75
2022-12-15T08:24:54.891Z,33.75
2022-12-15T08:25:54.997Z,33.75
2022-12-15T08:26:54.966Z,39.38
2022-12-15T08:27:55.859Z,39.38
2022-12-15T08:28:55.050Z,39.38
2022-12-15T08:29:55.097Z,39.38
2022-12-15T08:30:55.208Z,33.75
2022-12-15T08:31:55.896Z,33.75
2022-12-15T08:32:55.871Z,39.38
2022-12-15T08:33:55.260Z,50.63
2022-12-15T08:34:55.839Z,56.25
2022-12-15T08:35:57.146Z,56.25
2022-12-15T08:36:55.388Z,56.25
2022-12-15T08:37:55.528Z,56.25
2022-12-15T08:38:56.375Z,56.25
2022-12-15T09:53:55.810Z,67.50
2022-12-15T10:59:34.132Z,95.63
2022-12-15T11:00:34.727Z,101.25
2022-12-15T11:01:34.307Z,95.63
2022-12-15T11:02:34.881Z,95.63
2022-12-15T11:03:34.566Z,101.25
2022-12-15T11:04:35.249Z,95.63
2022-12-15T11:05:35.233Z,95.63
2022-12-15T11:06:34.398Z,95.63
2022-12-15T11:07:35.237Z,95.63
2022-12-15T11:08:34.442Z,95.63
2022-12-15T11:09:35.233Z,95.63
2022-12-15T11:10:35.228Z,90.00
2022-12-15T11:11:34.580Z,84.38
2022-12-15T11:12:34.597Z,90.00
2022-12-15T11:13:35.213Z,84.38
2022-12-15T11:14:34.702Z,90.00
2022-12-15T11:15:35.318Z,90.00
2022-12-15T11:16:35.722Z,90.00
2022-12-15T11:17:34.792Z,84.38
2022-12-15T11:18:34.848Z,84.38
2022-12-15T11:19:34.912Z,84.38
2022-12-15T11:20:35.729Z,78.75
2022-12-15T11:21:34.966Z,78.75
2022-12-15T11:22:35.919Z,78.75
2022-12-15T11:23:35.561Z,78.75
2022-12-15T11:24:35.736Z,78.75
2022-12-15T11:25:35.735Z,84.38
2022-12-15T11:26:35.728Z,78.75
2022-12-15T11:27:35.231Z,84.38
2022-12-15T11:28:35.249Z,78.75
2022-12-15T11:29:35.293Z,78.75
2022-12-15T11:30:36.224Z,78.75
2022-12-15T11:31:35.385Z,78.75
2022-12-15T11:32:36.227Z,78.75
2022-12-15T11:33:35.752Z,78.75
2022-12-15T11:34:35.565Z,78.75
2022-12-15T11:35:36.228Z,78.75
2022-12-15T11:36:36.228Z,84.38
2022-12-15T11:37:36.874Z,78.75
2022-12-15T11:38:36.264Z,78.75
2022-12-15T11:39:35.724Z,78.75
2022-12-15T11:40:36.732Z,78.75
2022-12-15T11:41:36.722Z,78.75
2022-12-15T11:42:35.853Z,78.75
2022-12-15T11:43:36.564Z,78.75
2022-12-15T11:44:35.901Z,78.75
2022-12-15T11:45:36.734Z,78.75
2022-12-15T11:46:36.731Z,84.38
2022-12-15T11:47:36.749Z,90.00
2022-12-15T11:48:36.134Z,90.00
2022-12-15T11:49:40.981Z,90.00
2022-12-15T11:50:36.154Z,90.00
2022-12-15T11:51:36.737Z,90.00
2022-12-15T11:52:36.308Z,90.00
2022-12-15T11:53:36.544Z,90.00
2022-12-15T11:54:36.340Z,90.00
2022-12-15T11:55:41.167Z,90.00
2022-12-15T11:56:36.391Z,95.63
2022-12-15T11:57:37.233Z,90.00
2022-12-15T11:58:37.231Z,90.00
2022-12-15T11:59:36.535Z,90.00
2022-12-15T12:00:36.568Z,90.00
2022-12-15T12:01:36.640Z,90.00
2022-12-15T12:02:37.375Z,90.00
2022-12-15T12:03:37.234Z,90.00
2022-12-15T12:04:36.782Z,90.00
2022-12-15T12:05:37.762Z,90.00
2022-12-15T12:27:38.969Z,95.63
2022-12-15T12:28:38.928Z,95.63
2022-12-15T12:29:38.977Z,95.63
2022-12-15T12:30:39.005Z,95.63
2022-12-15T12:31:39.049Z,95.63
2022-12-15T12:32:39.116Z,101.25
2022-12-15T12:33:40.093Z,101.25
2022-12-15T12:34:39.163Z,106.88
2022-12-15T12:35:39.206Z,106.88
2022-12-15T12:36:39.259Z,106.88
2022-12-15T12:37:39.307Z,101.25
2022-12-15T12:53:06.317Z,90.00
2022-12-15T12:54:17.736Z,84.38
2022-12-15T12:55:09.636Z,90.00
2022-12-15T12:56:06.405Z,90.00
2022-12-15T12:57:06.439Z,95.63
2022-12-15T12:58:07.060Z,90.00
2022-12-15T12:59:06.527Z,90.00
2022-12-15T13:00:06.587Z,90.00
2022-12-15T13:01:06.734Z,90.00
2022-12-15T13:02:06.775Z,84.38
2022-12-15T13:03:06.690Z,84.38
2022-12-15T13:04:06.740Z,84.38
2022-12-15T13:05:06.793Z,78.75
2022-12-15T13:06:06.805Z,78.75
2022-12-15T13:07:12.796Z,73.13
2022-12-15T13:08:06.912Z,73.13
2022-12-15T13:09:06.928Z,67.50
2022-12-15T13:10:06.970Z,67.50
2022-12-15T13:11:07.004Z,67.50
2022-12-15T13:12:27.317Z,67.50
2022-12-15T13:13:07.130Z,67.50
2022-12-15T13:14:10.587Z,61.88
2022-12-15T13:15:07.176Z,56.25
2022-12-15T13:16:07.214Z,56.25
2022-12-15T13:20:26.978Z,56.25
2022-12-15T13:24:12.309Z,56.25
2022-12-15T13:25:12.317Z,56.25
2022-12-15T16:46:25.667Z,0.00
2022-12-15T16:47:25.639Z,0.00
2022-12-15T16:48:25.738Z,0.00
2022-12-15T16:49:26.239Z,0.00
2022-12-15T16:50:25.749Z,0.00
2022-12-15T16:51:26.742Z,0.00
2022-12-15T16:52:25.835Z,0.00
2022-12-15T16:53:25.848Z,0.00
2022-12-15T16:54:25.898Z,0.00
2022-12-15T16:55:25.958Z,0.00
2022-12-15T16:56:25.966Z,0.00
2022-12-15T16:57:26.000Z,0.00
2022-12-15T16:58:26.747Z,0.00
2022-12-15T16:59:34.631Z,0.00
2022-12-15T17:00:26.160Z,0.00
2022-12-15T17:01:26.284Z,0.00
2022-12-15T17:02:26.366Z,0.00
2022-12-15T17:03:26.881Z,0.00
2022-12-15T18:12:38.065Z,0.00
2022-12-15T18:13:39.146Z,0.00
2022-12-15T18:14:38.113Z,0.00
2022-12-15T18:15:39.065Z,0.00
2022-12-15T18:16:38.277Z,0.00
2022-12-15T18:17:38.236Z,0.00
2022-12-15T18:18:38.283Z,0.00
2022-12-15T18:19:38.326Z,0.00
2022-12-15T18:20:39.067Z,0.00
2022-12-15T18:21:38.373Z,0.00
2022-12-15T18:22:39.064Z,0.00
2022-12-15T18:23:38.437Z,0.00
2022-12-15T18:24:38.495Z,0.00
2022-12-15T18:25:38.519Z,0.00
2022-12-15T18:26:38.563Z,0.00
2022-12-15T18:27:38.594Z,0.00
2022-12-15T18:28:38.635Z,0.00
2022-12-15T18:29:38.712Z,0.00
2022-12-15T18:30:38.734Z,0.00
2022-12-15T18:31:38.817Z,0.00
2022-12-15T18:32:38.796Z,0.00
2022-12-15T18:33:38.838Z,0.00
2022-12-15T18:34:38.866Z,0.00
2022-12-15T18:35:38.941Z,0.00
2022-12-15T18:36:39.573Z,0.00
2022-12-15T18:37:39.573Z,0.00
2022-12-15T18:38:39.023Z,0.00
2022-12-15T18:39:39.086Z,0.00
2022-12-15T18:40:39.133Z,0.00
2022-12-15T18:41:40.078Z,0.00
2022-12-15T18:42:39.207Z,0.00
2022-12-15T18:43:39.231Z,0.00
2022-12-15T18:44:40.071Z,0.00
2022-12-15T18:45:40.074Z,0.00
2022-12-15T18:46:42.044Z,0.00
2022-12-15T18:47:39.432Z,0.00
2022-12-15T18:48:39.436Z,0.00
2022-12-15T18:49:40.075Z,0.00
2022-12-15T18:50:40.066Z,0.00
2022-12-15T18:51:40.069Z,0.00
2022-12-15T18:52:39.612Z,0.00
2022-12-15T18:53:39.630Z,0.00
2022-12-15T18:54:39.658Z,0.00
2022-12-15T18:55:40.571Z,0.00
2022-12-15T18:56:39.737Z,0.00
2022-12-15T18:57:39.827Z,0.00
2022-12-15T18:58:39.824Z,0.00
2022-12-15T18:59:39.855Z,0.00
2022-12-15T19:00:39.953Z,0.00
2022-12-15T19:01:40.070Z,0.00
2022-12-15T19:02:40.107Z,0.00
2022-12-15T19:03:40.028Z,0.00
2022-12-15T19:04:40.073Z,0.00
2022-12-15T19:05:40.145Z,0.00
2022-12-15T19:06:41.127Z,0.00
2022-12-15T19:07:40.186Z,0.00
2022-12-15T19:08:40.220Z,0.00
2022-12-15T19:09:40.271Z,0.00
2022-12-15T19:10:40.323Z,0.00
2022-12-15T19:11:40.374Z,0.00
2022-12-15T19:12:41.073Z,0.00
2022-12-15T19:13:40.444Z,0.00
2022-12-15T19:14:40.536Z,0.00
2022-12-15T19:15:40.521Z,0.00
2022-12-15T19:16:40.551Z,0.00
2022-12-15T19:17:40.582Z,0.00
2022-12-15T19:18:41.567Z,0.00
2022-12-15T19:19:40.656Z,0.00
2022-12-15T19:20:40.736Z,0.00
2022-12-15T19:21:40.739Z,0.00
2022-12-15T19:22:40.784Z,0.00
2022-12-15T19:23:40.823Z,0.00
2022-12-15T19:24:41.576Z,0.00
2022-12-15T19:25:40.929Z,0.00
2022-12-15T19:26:40.939Z,0.00
2022-12-15T19:27:40.981Z,0.00
2022-12-15T19:28:41.036Z,0.00
2022-12-15T19:29:41.062Z,0.00
2022-12-15T19:30:42.431Z,0.00
2022-12-15T19:31:41.158Z,0.00
2022-12-15T19:32:41.177Z,0.00
2022-12-15T19:33:41.247Z,0.00
2022-12-15T19:34:41.260Z,0.00
2022-12-15T19:35:41.322Z,0.00
2022-12-15T19:36:42.083Z,0.00
2022-12-15T19:37:41.368Z,0.00
2022-12-15T19:38:41.409Z,0.00
2022-12-15T19:39:41.448Z,0.00
2022-12-15T19:40:41.528Z,0.00
2022-12-15T19:41:41.536Z,0.00
2022-12-15T19:42:41.577Z,0.00
2022-12-15T19:43:41.617Z,0.00
2022-12-15T19:44:42.576Z,0.00
2022-12-15T19:45:41.782Z,0.00
2022-12-15T19:46:41.739Z,0.00
2022-12-15T19:47:41.776Z,0.00
2022-12-15T19:48:42.574Z,0.00
2022-12-15T19:49:41.851Z,0.00
2022-12-15T19:50:41.921Z,0.00
2022-12-15T19:51:42.571Z,0.00
2022-12-15T19:52:41.969Z,0.00
2022-12-15T19:53:42.037Z,0.00
2022-12-15T19:54:42.052Z,0.00
2022-12-15T19:55:42.151Z,0.00
2022-12-15T19:56:42.130Z,0.00
2022-12-15T19:57:42.170Z,0.00
2022-12-15T19:58:42.243Z,0.00
2022-12-15T19:59:42.251Z,0.00
2022-12-15T20:00:43.156Z,0.00
2022-12-15T20:01:42.446Z,0.00
2022-12-15T20:02:42.482Z,0.00
2022-12-15T20:03:42.502Z,0.00
2022-12-15T20:04:42.447Z,0.00
2022-12-15T20:05:43.072Z,0.00
2022-12-15T20:06:42.527Z,0.00
2022-12-15T20:07:42.580Z,0.00
2022-12-15T20:08:42.646Z,0.00
2022-12-15T20:09:42.640Z,0.00
2022-12-15T20:10:43.577Z,0.00
2022-12-15T20:11:42.752Z,0.00
2022-12-15T20:12:42.770Z,0.00
2022-12-15T20:13:42.823Z,0.00
2022-12-15T20:14:42.852Z,0.00
2022-12-15T20:15:42.892Z,0.00
2022-12-15T20:16:42.986Z,0.00
2022-12-15T20:17:42.962Z,0.00
2022-12-15T20:18:43.038Z,0.00
2022-12-15T20:19:43.050Z,0.00
2022-12-15T20:20:43.128Z,0.00
2022-12-15T20:21:43.140Z,0.00
2022-12-15T20:22:43.166Z,0.00
2022-12-15T20:23:44.077Z,0.00
2022-12-15T20:24:43.279Z,0.00
2022-12-15T20:25:44.101Z,0.00
2022-12-15T20:26:43.341Z,0.00
2022-12-15T20:27:43.371Z,0.00
2022-12-15T20:28:43.410Z,0.00
2022-12-15T20:29:43.434Z,0.00
2022-12-15T20:30:44.077Z,0.00
2022-12-15T20:31:43.643Z,0.00
2022-12-15T20:32:44.075Z,0.00
2022-12-15T20:33:43.606Z,0.00
2022-12-15T20:34:44.567Z,0.00
2022-12-15T20:35:44.261Z,0.00
2022-12-15T20:36:43.741Z,0.00
2022-12-15T20:37:43.795Z,0.00
2022-12-15T20:38:43.788Z,0.00
2022-12-15T20:39:43.835Z,0.00
2022-12-15T20:40:44.301Z,0.00
2022-12-15T20:41:44.585Z,0.00
2022-12-15T20:42:43.987Z,0.00
2022-12-15T20:43:44.568Z,0.00
2022-12-15T20:49:56.302Z,0.00
2022-12-15T20:50:46.409Z,0.00
2022-12-15T20:51:46.484Z,0.00